SYAW weather

Awaruwaunau Airport
Awaruwaunau, Upper Takutu-Upper Essequibo, Guyana

Public forecast

Using degrees Celsius for public forecast. Weather courtesy of forecast.io.

METAR (pilot weather report)

Report is more than 6 hours old.

Closest report is Lethem Airport, 56.0 nm (103.6 km) NW. Retrieved 2019/04/21 15:00 UTC (21 hours ago):

SYLT 211500Z 09010KT 9999 SCT024 29/23 Q//// NOSIG

TAF (pilot weather forecast)

Forecast is more than 12 hours old.

Closest forecast is Lethem Airport, 56.0 nm (103.6 km) NW. Retrieved 2019/04/21 12:16 UTC (24 hours ago):

TAF SYLT 211116Z 2112/2123 07014KT 9999 BKN020 SCT038 TEMPO 2118/2122 5000 SHRA BKN036